createdAt,value
2017-03-28T00:01:13.058Z,16.03
2017-03-28T00:02:12.986Z,15.93
2017-03-28T00:03:12.921Z,16.03
2017-03-28T00:04:12.864Z,16.03
2017-03-28T00:05:12.796Z,16.03
2017-03-28T00:06:12.744Z,15.93
2017-03-28T00:07:12.676Z,16.12
2017-03-28T00:08:12.609Z,16.12
2017-03-28T00:09:12.550Z,16.12
2017-03-28T00:10:12.485Z,16.12
2017-03-28T00:11:12.425Z,16.12
2017-03-28T00:12:12.369Z,15.93
2017-03-28T00:13:12.302Z,15.93
2017-03-28T00:14:12.241Z,15.93
2017-03-28T00:15:12.176Z,16.12
2017-03-28T00:16:12.114Z,16.12
2017-03-28T00:17:12.050Z,16.03
2017-03-28T00:18:11.993Z,16.03
2017-03-28T00:19:11.931Z,16.12
2017-03-28T00:20:11.867Z,16.12
2017-03-28T00:21:11.806Z,16.03
2017-03-28T00:22:11.740Z,15.93
2017-03-28T00:23:11.680Z,16.03
2017-03-28T00:24:11.623Z,16.12
2017-03-28T00:25:11.555Z,16.12
2017-03-28T00:26:11.492Z,16.03
2017-03-28T00:27:11.445Z,16.12
2017-03-28T00:28:11.369Z,15.93
2017-03-28T00:29:11.311Z,16.12
2017-03-28T00:30:11.249Z,16.03
2017-03-28T00:31:11.182Z,16.03
2017-03-28T00:32:11.119Z,16.03
2017-03-28T00:33:11.061Z,16.12
2017-03-28T00:34:11.005Z,16.12
2017-03-28T00:35:10.932Z,16.12
2017-03-28T00:36:10.875Z,16.12
2017-03-28T00:37:10.811Z,16.12
2017-03-28T00:38:10.750Z,16.03
2017-03-28T00:39:10.690Z,16.03
2017-03-28T00:40:10.621Z,16.22
2017-03-28T00:41:10.563Z,16.03
2017-03-28T00:42:10.499Z,16.03
2017-03-28T00:43:10.436Z,16.22
2017-03-28T00:44:10.372Z,16.12
2017-03-28T00:45:10.311Z,16.03
2017-03-28T00:46:10.252Z,16.12
2017-03-28T00:47:10.186Z,16.22
2017-03-28T00:48:10.131Z,16.22
2017-03-28T00:49:10.064Z,16.12
2017-03-28T00:50:10.000Z,16.12
2017-03-28T00:51:09.950Z,16.12
2017-03-28T00:52:09.883Z,16.03
2017-03-28T00:53:09.830Z,16.22
2017-03-28T00:54:09.763Z,16.12
2017-03-28T00:55:09.696Z,16.03
2017-03-28T00:56:09.635Z,16.22
2017-03-28T00:57:09.573Z,16.12
2017-03-28T00:58:09.512Z,16.12
2017-03-28T00:59:09.447Z,16.12
2017-03-28T01:00:09.389Z,16.22
2017-03-28T01:01:09.316Z,16.22
2017-03-28T01:02:09.254Z,16.03
2017-03-28T01:03:09.192Z,16.12
2017-03-28T01:04:09.130Z,16.12
2017-03-28T01:05:09.067Z,16.03
2017-03-28T01:06:09.013Z,16.12
2017-03-28T01:07:08.943Z,16.12
2017-03-28T01:08:08.884Z,16.12
2017-03-28T01:09:08.820Z,16.12
2017-03-28T01:10:08.761Z,16.22
2017-03-28T01:11:08.698Z,16.12
2017-03-28T01:12:08.632Z,15.93
2017-03-28T01:13:08.574Z,16.12
2017-03-28T01:14:08.204Z,16.12
2017-03-28T01:15:08.145Z,16.03
2017-03-28T01:16:08.385Z,16.12
2017-03-28T01:17:08.323Z,16.03
2017-03-28T01:18:08.262Z,16.12
2017-03-28T01:19:08.202Z,16.22
2017-03-28T01:20:08.139Z,16.12
2017-03-28T01:21:08.072Z,16.12
2017-03-28T01:22:08.009Z,16.12
2017-03-28T01:23:07.949Z,16.03
2017-03-28T01:24:07.894Z,16.12
2017-03-28T01:25:07.824Z,16.03
2017-03-28T01:26:07.765Z,16.03
2017-03-28T01:27:07.700Z,16.31
2017-03-28T01:28:07.637Z,16.03
2017-03-28T01:29:07.574Z,16.03
2017-03-28T01:30:07.516Z,16.12
2017-03-28T01:31:07.455Z,16.12
2017-03-28T01:32:07.392Z,16.12
2017-03-28T01:33:07.333Z,16.12
2017-03-28T01:34:07.264Z,15.93
2017-03-28T01:35:07.202Z,16.22
2017-03-28T01:36:07.143Z,15.83
2017-03-28T01:37:07.080Z,16.22
2017-03-28T01:38:06.712Z,16.03
2017-03-28T01:39:06.651Z,16.03
2017-03-28T01:40:06.895Z,16.12
2017-03-28T01:41:06.829Z,15.93
2017-03-28T01:42:06.768Z,16.7
2017-03-28T01:43:06.417Z,16.22
2017-03-28T01:44:06.642Z,16.61
2017-03-28T01:45:06.582Z,16.89
2017-03-28T01:46:06.520Z,16.89
2017-03-28T01:47:06.456Z,17.38
2017-03-28T01:48:06.392Z,17.09
2017-03-28T01:49:06.335Z,17.09
2017-03-28T01:50:06.270Z,17.57
2017-03-28T01:51:06.210Z,17.57
2017-03-28T01:52:06.147Z,17.67
2017-03-28T01:53:05.782Z,17.57
2017-03-28T01:54:06.024Z,17.38
2017-03-28T01:55:05.654Z,17.19
2017-03-28T01:56:05.897Z,17.38
2017-03-28T01:57:05.833Z,17.38
2017-03-28T01:58:05.776Z,17.57
2017-03-28T01:59:05.711Z,17.67
2017-03-28T02:00:05.648Z,18.25
2017-03-28T02:01:05.584Z,17.67
2017-03-28T02:02:05.553Z,17.67
2017-03-28T02:03:05.464Z,17.57
2017-03-28T02:04:05.399Z,17.67
2017-03-28T02:05:05.037Z,17.76
2017-03-28T02:06:05.283Z,17.57
2017-03-28T02:07:05.214Z,17.57
2017-03-28T02:08:05.151Z,17.57
2017-03-28T02:09:05.093Z,17.86
2017-03-28T02:10:04.725Z,17.57
2017-03-28T02:11:04.964Z,17.28
2017-03-28T02:12:04.911Z,17.47
2017-03-28T02:13:04.839Z,17.76
2017-03-28T02:14:04.778Z,17.47
2017-03-28T02:15:04.715Z,17.57
2017-03-28T02:16:04.652Z,17.38
2017-03-28T02:17:04.595Z,17.38
2017-03-28T02:18:04.529Z,17.47
2017-03-28T02:19:04.466Z,17.28
2017-03-28T02:20:04.405Z,17.28
2017-03-28T02:21:04.344Z,17.19
2017-03-28T02:22:04.286Z,17.57
2017-03-28T02:23:04.223Z,17.38
2017-03-28T02:24:03.863Z,17.19
2017-03-28T02:25:04.093Z,17.38
2017-03-28T02:26:04.031Z,17.38
2017-03-28T02:27:03.969Z,17.38
2017-03-28T02:28:03.913Z,17.28
2017-03-28T02:29:03.845Z,17.19
2017-03-28T02:30:03.780Z,17.19
2017-03-28T02:31:03.720Z,17.28
2017-03-28T02:32:03.668Z,17.19
2017-03-28T02:33:03.595Z,17.19
2017-03-28T02:34:03.536Z,17.28
2017-03-28T02:35:03.470Z,17.19
2017-03-28T02:36:03.411Z,17.19
2017-03-28T02:37:03.347Z,17.19
2017-03-28T02:38:03.290Z,17.19
2017-03-28T02:39:03.224Z,17.19
2017-03-28T02:40:03.169Z,17.19
2017-03-28T02:41:03.098Z,17.19
2017-03-28T02:42:03.037Z,17.19
2017-03-28T02:43:02.972Z,17.09
2017-03-28T02:44:02.913Z,17.09
2017-03-28T02:45:02.847Z,17.28
2017-03-28T02:46:02.789Z,17.28
2017-03-28T02:47:02.726Z,17.28
2017-03-28T02:48:02.661Z,17.27
2017-03-28T02:49:02.598Z,17.38
2017-03-28T02:50:02.537Z,17.19
2017-03-28T02:51:02.476Z,17.28
2017-03-28T02:52:02.412Z,17.28
2017-03-28T02:53:02.351Z,17.28
2017-03-28T02:54:02.293Z,17.28
2017-03-28T02:55:02.231Z,17.67
2017-03-28T02:56:02.164Z,17.19
2017-03-28T02:57:02.101Z,17.09
2017-03-28T02:58:02.043Z,17.38
2017-03-28T02:59:01.982Z,17.38
2017-03-28T03:00:01.921Z,17.47
2017-03-28T03:01:01.853Z,17.57
2017-03-28T03:02:01.792Z,17.57
2017-03-28T03:03:01.729Z,17.57
2017-03-28T03:04:01.668Z,17.57
2017-03-28T03:05:01.608Z,17.38
2017-03-28T03:06:01.542Z,17.38
2017-03-28T03:07:01.490Z,17.37
2017-03-28T03:08:01.425Z,17.86
2017-03-28T03:09:01.373Z,17.47
2017-03-28T03:10:01.299Z,17.57
2017-03-28T03:11:01.232Z,17.56
2017-03-28T03:12:01.168Z,17.38
2017-03-28T03:13:01.111Z,17.38
2017-03-28T03:14:01.044Z,17.28
2017-03-28T03:15:00.989Z,17.57
2017-03-28T03:16:00.920Z,17.67
2017-03-28T03:17:00.858Z,17.37
2017-03-28T03:18:00.801Z,17.57
2017-03-28T03:19:00.738Z,17.38
2017-03-28T03:20:00.676Z,17.47
2017-03-28T03:21:00.607Z,17.47
2017-03-28T03:22:00.555Z,17.28
2017-03-28T03:23:00.485Z,17.18
2017-03-28T03:24:00.423Z,17.18
2017-03-28T03:25:00.365Z,17.09
2017-03-28T03:25:59.994Z,17.19
2017-03-28T03:27:00.237Z,17.18
2017-03-28T03:28:00.176Z,17.18
2017-03-28T03:29:00.121Z,17.37
2017-03-28T03:30:00.058Z,17.19
2017-03-28T03:30:59.991Z,17.27
2017-03-28T03:31:59.949Z,17.18
2017-03-28T03:32:59.863Z,17.27
2017-03-28T03:33:59.801Z,17.19
2017-03-28T03:34:59.744Z,17.18
2017-03-28T03:35:59.675Z,17.18
2017-03-28T03:36:59.619Z,17.18
2017-03-28T03:37:59.556Z,17.28
2017-03-28T03:38:59.496Z,17.08
2017-03-28T03:39:59.428Z,17.67
2017-03-28T03:40:59.369Z,17.66
2017-03-28T03:41:59.304Z,18.04
2017-03-28T03:42:59.241Z,17.95
2017-03-28T03:43:59.181Z,17.95
2017-03-28T03:44:59.117Z,18.05
2017-03-28T03:45:59.073Z,17.76
2017-03-28T03:46:58.992Z,18.04
2017-03-28T03:47:58.931Z,18.15
2017-03-28T03:48:58.869Z,18.14
2017-03-28T03:49:58.805Z,18.04
2017-03-28T03:50:58.743Z,17.85
2017-03-28T03:51:58.680Z,18.14
2017-03-28T03:52:58.623Z,18.14
2017-03-28T03:53:58.554Z,18.04
2017-03-28T03:54:58.498Z,17.95
2017-03-28T03:55:58.429Z,18.15
2017-03-28T03:56:58.368Z,17.95
2017-03-28T03:57:58.307Z,17.95
2017-03-28T03:58:58.244Z,18.14
2017-03-28T03:59:58.190Z,18.14
2017-03-28T04:00:58.120Z,17.85
2017-03-28T04:01:58.055Z,18.05
2017-03-28T04:02:57.996Z,17.95
2017-03-28T04:03:57.937Z,17.67
2017-03-28T04:04:57.870Z,17.76
2017-03-28T04:05:57.807Z,17.37
2017-03-28T04:06:57.448Z,17.27
2017-03-28T04:07:57.685Z,17.27
2017-03-28T04:08:57.621Z,17.27
2017-03-28T04:09:57.591Z,17.27
2017-03-28T04:10:57.497Z,17.27
2017-03-28T04:11:57.433Z,17.37
2017-03-28T04:12:57.373Z,17.18
2017-03-28T04:13:57.312Z,17.56
2017-03-28T04:14:57.248Z,17.37
2017-03-28T04:15:57.185Z,17.27
2017-03-28T04:16:57.124Z,17.37
2017-03-28T04:17:57.063Z,17.37
2017-03-28T04:18:56.996Z,17.27
2017-03-28T04:19:56.945Z,17.66
2017-03-28T04:20:56.582Z,17.56
2017-03-28T04:21:56.814Z,17.66
2017-03-28T04:22:56.446Z,17.66
2017-03-28T04:23:56.695Z,17.66
2017-03-28T04:24:56.627Z,17.66
2017-03-28T04:25:56.562Z,17.56
2017-03-28T04:26:56.499Z,17.56
2017-03-28T04:27:56.436Z,17.47
2017-03-28T04:28:56.378Z,17.76
2017-03-28T04:29:56.314Z,17.38
2017-03-28T04:30:56.253Z,17.37
2017-03-28T04:31:56.188Z,17.76
2017-03-28T04:32:56.128Z,17.76
2017-03-28T04:33:56.066Z,17.37
2017-03-28T04:34:56.001Z,17.76
2017-03-28T04:35:55.940Z,17.66
2017-03-28T04:36:55.876Z,17.37
2017-03-28T04:37:55.814Z,17.56
2017-03-28T04:38:55.750Z,17.18
2017-03-28T04:39:55.689Z,17.66
2017-03-28T04:40:55.627Z,17.56
2017-03-28T04:41:55.566Z,17.08
2017-03-28T04:42:55.504Z,17.57
2017-03-28T04:43:55.443Z,17.08
2017-03-28T04:44:55.383Z,17.47
2017-03-28T04:45:55.314Z,17.76
2017-03-28T04:46:55.252Z,17.56
2017-03-28T04:47:55.193Z,17.08
2017-03-28T04:48:55.175Z,17.47
2017-03-28T04:49:55.109Z,17.47
2017-03-28T04:50:55.100Z,17.66
2017-03-28T04:51:54.981Z,17.47
2017-03-28T04:52:54.899Z,17.47
2017-03-28T04:53:54.817Z,17.56
2017-03-28T04:54:54.763Z,17.56
2017-03-28T04:55:54.702Z,17.56
2017-03-28T04:56:54.339Z,17.56
2017-03-28T04:57:54.571Z,17.47
2017-03-28T04:58:54.516Z,17.76
2017-03-28T04:59:54.443Z,17.56
2017-03-28T05:00:54.379Z,17.66
2017-03-28T05:01:54.319Z,17.56
2017-03-28T05:02:54.257Z,17.56
2017-03-28T05:03:54.193Z,17.76
2017-03-28T05:04:54.130Z,17.66
2017-03-28T05:05:54.067Z,17.76
2017-03-28T05:06:54.006Z,17.37
2017-03-28T05:07:53.943Z,17.47
2017-03-28T05:08:53.879Z,17.56
2017-03-28T05:09:53.820Z,17.56
2017-03-28T05:10:53.754Z,17.66
2017-03-28T05:11:53.691Z,17.66
2017-03-28T05:12:53.633Z,17.37
2017-03-28T05:13:53.569Z,17.27
2017-03-28T05:14:53.507Z,17.37
2017-03-28T05:15:53.445Z,17.27
2017-03-28T05:16:53.394Z,17.08
2017-03-28T05:17:53.320Z,17.18
2017-03-28T05:18:53.257Z,17.27
2017-03-28T05:19:53.194Z,17.56
2017-03-28T05:20:53.132Z,17.76
2017-03-28T05:21:53.084Z,17.66
2017-03-28T05:22:53.006Z,17.56
2017-03-28T05:23:52.944Z,17.85
2017-03-28T05:24:52.884Z,18.14
2017-03-28T05:25:52.819Z,18.14
2017-03-28T05:26:52.757Z,17.95
2017-03-28T05:27:52.725Z,17.85
2017-03-28T05:28:52.633Z,18.14
2017-03-28T05:29:52.571Z,17.95
2017-03-28T05:30:52.506Z,17.85
2017-03-28T05:31:52.448Z,17.85
2017-03-28T05:32:52.386Z,17.47
2017-03-28T05:33:52.323Z,17.66
2017-03-28T05:34:52.259Z,18.04
2017-03-28T05:35:52.194Z,17.85
2017-03-28T05:36:52.144Z,18.04
2017-03-28T05:37:52.075Z,17.85
2017-03-28T05:38:52.012Z,18.04
2017-03-28T05:39:51.947Z,18.04
2017-03-28T05:40:51.886Z,17.85
2017-03-28T05:41:51.822Z,18.14
2017-03-28T05:42:51.760Z,17.95
2017-03-28T05:43:51.696Z,18.04
2017-03-28T05:44:51.635Z,18.04
2017-03-28T05:45:51.574Z,18.04
2017-03-28T05:46:51.509Z,18.04
2017-03-28T05:47:51.448Z,18.04
2017-03-28T05:48:51.395Z,18.14
2017-03-28T05:49:51.331Z,18.14
2017-03-28T05:50:51.258Z,18.04
2017-03-28T05:51:51.206Z,18.04
2017-03-28T05:52:51.133Z,18.14
2017-03-28T05:53:51.073Z,18.04
2017-03-28T05:54:51.015Z,18.33
2017-03-28T05:55:50.948Z,18.04
2017-03-28T05:56:50.896Z,18.04
2017-03-28T05:57:50.835Z,18.04
2017-03-28T05:58:50.760Z,18.14
2017-03-28T05:59:50.695Z,18.04
2017-03-28T06:00:50.334Z,18.04
2017-03-28T06:01:50.573Z,18.24
2017-03-28T06:02:50.221Z,17.95
2017-03-28T06:03:50.452Z,18.14
2017-03-28T06:04:50.384Z,17.95
2017-03-28T06:05:50.325Z,18.04
2017-03-28T06:06:50.263Z,18.04
2017-03-28T06:07:50.198Z,18.24
2017-03-28T06:08:50.144Z,17.95
2017-03-28T06:09:50.071Z,18.24
2017-03-28T06:10:50.015Z,17.95
2017-03-28T06:11:49.946Z,18.24
2017-03-28T06:12:49.893Z,18.24
2017-03-28T06:13:49.825Z,17.95
2017-03-28T06:14:49.762Z,18.04
2017-03-28T06:15:49.699Z,17.95
2017-03-28T06:16:49.635Z,18.04
2017-03-28T06:17:49.585Z,18.04
2017-03-28T06:18:49.512Z,18.24
2017-03-28T06:19:49.446Z,17.95
2017-03-28T06:20:49.396Z,18.04
2017-03-28T06:21:49.325Z,18.14
2017-03-28T06:22:49.265Z,18.14
2017-03-28T06:23:48.910Z,18.14
2017-03-28T06:24:49.143Z,18.24
2017-03-28T06:25:49.075Z,18.14
2017-03-28T06:26:49.014Z,18.14
2017-03-28T06:27:48.948Z,18.14
2017-03-28T06:28:48.889Z,18.04
2017-03-28T06:29:48.827Z,18.14
2017-03-28T06:30:48.761Z,18.14
2017-03-28T06:31:48.700Z,18.14
2017-03-28T06:32:48.639Z,18.24
2017-03-28T06:33:48.577Z,18.24
2017-03-28T06:34:48.510Z,18.04
2017-03-28T06:35:48.448Z,18.04
2017-03-28T06:36:48.388Z,17.95
2017-03-28T06:37:48.327Z,18.14
2017-03-28T06:38:48.269Z,18.14
2017-03-28T06:39:48.200Z,18.04
2017-03-28T06:40:48.135Z,17.85
2017-03-28T06:41:47.785Z,18.14
2017-03-28T06:42:48.018Z,17.95
2017-03-28T06:43:47.950Z,18.04
2017-03-28T06:44:47.888Z,17.85
2017-03-28T06:45:47.830Z,17.85
2017-03-28T06:46:47.769Z,17.95
2017-03-28T06:47:47.700Z,17.85
2017-03-28T06:48:47.652Z,17.85
2017-03-28T06:49:47.573Z,18.04
2017-03-28T06:50:47.515Z,18.14
2017-03-28T06:51:47.452Z,17.85
2017-03-28T06:52:47.389Z,18.14
2017-03-28T06:53:47.326Z,17.85
2017-03-28T06:54:47.265Z,17.95
2017-03-28T06:55:47.201Z,18.04
2017-03-28T06:56:47.137Z,17.95
2017-03-28T06:57:47.077Z,18.14
2017-03-28T06:58:47.014Z,18.14
2017-03-28T06:59:46.950Z,18.24
2017-03-28T07:00:47.236Z,19.01
2017-03-28T07:01:46.824Z,19.38
2017-03-28T07:02:46.767Z,19.29
2017-03-28T07:03:46.424Z,19
2017-03-28T07:04:46.646Z,19.58
2017-03-28T07:05:46.574Z,20.16
2017-03-28T07:06:46.524Z,20.26
2017-03-28T07:07:46.450Z,20.26
2017-03-28T07:08:46.415Z,20.26
2017-03-28T07:09:46.043Z,20.36
2017-03-28T07:10:46.286Z,20.36
2017-03-28T07:11:46.201Z,20.56
2017-03-28T07:12:46.138Z,21.23
2017-03-28T07:13:46.077Z,21.81
2017-03-28T07:14:46.014Z,21.81
2017-03-28T07:15:45.949Z,21.71
2017-03-28T07:16:45.890Z,21.62
2017-03-28T07:17:45.831Z,21.81
2017-03-28T07:18:45.764Z,21.81
2017-03-28T07:19:45.699Z,22.19
2017-03-28T07:20:45.639Z,22.29
2017-03-28T07:21:45.581Z,22.39
2017-03-28T07:22:45.522Z,22.58
2017-03-28T07:23:45.456Z,22.97
2017-03-28T07:24:45.387Z,22.97
2017-03-28T07:25:45.433Z,22.87
2017-03-28T07:26:45.261Z,23.45
2017-03-28T07:27:45.204Z,23.16
2017-03-28T07:28:45.145Z,23.16
2017-03-28T07:29:45.081Z,23.07
2017-03-28T07:30:44.959Z,23.25
2017-03-28T07:31:44.989Z,23.17
2017-03-28T07:32:44.887Z,23.55
2017-03-28T07:33:44.824Z,23.74
2017-03-28T07:34:44.460Z,23.35
2017-03-28T07:35:44.703Z,23.46
2017-03-28T07:36:44.638Z,23.94
2017-03-28T07:37:44.585Z,23.94
2017-03-28T07:38:44.514Z,23.45
2017-03-28T07:39:44.455Z,23.46
2017-03-28T07:40:44.414Z,23.35
2017-03-28T07:41:44.336Z,23.36
2017-03-28T07:42:44.264Z,23.36
2017-03-28T07:43:44.209Z,23.46
2017-03-28T07:44:43.837Z,23.75
2017-03-28T07:45:44.076Z,23.85
2017-03-28T07:46:44.024Z,24.33
2017-03-28T07:47:43.952Z,24.04
2017-03-28T07:48:43.890Z,24.14
2017-03-28T07:49:43.830Z,24.23
2017-03-28T07:50:43.767Z,24.33
2017-03-28T07:51:43.706Z,24.04
2017-03-28T07:52:43.649Z,23.85
2017-03-28T07:53:43.585Z,23.85
2017-03-28T07:54:43.520Z,24.43
2017-03-28T07:55:43.457Z,24.14
2017-03-28T07:56:43.091Z,24.23
2017-03-28T07:57:43.334Z,23.85
2017-03-28T07:58:43.269Z,23.75
2017-03-28T07:59:43.212Z,23.94
2017-03-28T08:00:44.194Z,24.04
2017-03-28T08:01:43.142Z,23.75
2017-03-28T08:02:43.071Z,24.72
2017-03-28T08:03:43.036Z,24.04
2017-03-28T08:04:42.900Z,23.08
2017-03-28T08:05:42.835Z,21.72
2017-03-28T08:06:42.774Z,20.94
2017-03-28T08:07:42.709Z,20.56
2017-03-28T08:08:42.649Z,20.26
2017-03-28T08:09:42.591Z,20.07
2017-03-28T08:10:42.527Z,20.36
2017-03-28T08:11:42.461Z,19.77
2017-03-28T08:12:42.406Z,19.98
2017-03-28T08:13:42.342Z,19.68
2017-03-28T08:14:42.276Z,19.49
2017-03-28T08:15:42.213Z,19.59
2017-03-28T08:16:42.151Z,19.58
2017-03-28T08:17:42.107Z,19.58
2017-03-28T08:18:42.023Z,19.49
2017-03-28T08:19:41.966Z,19.38
2017-03-28T08:20:41.596Z,19.38
2017-03-28T08:21:41.887Z,19.48
2017-03-28T08:22:41.771Z,19.68
2017-03-28T08:23:41.713Z,19.48
2017-03-28T08:24:41.344Z,19.48
2017-03-28T08:25:41.283Z,19.48
2017-03-28T08:26:41.522Z,19.38
2017-03-28T08:27:41.461Z,19.48
2017-03-28T08:28:41.397Z,19.38
2017-03-28T08:29:41.347Z,19.58
2017-03-28T08:30:41.437Z,19.58
2017-03-28T08:31:41.210Z,19.58
2017-03-28T08:32:41.149Z,19.48
2017-03-28T08:33:41.094Z,19.48
2017-03-28T08:34:40.721Z,19.68
2017-03-28T08:35:41.219Z,19.58
2017-03-28T08:36:40.598Z,19.48
2017-03-28T08:37:40.836Z,19.38
2017-03-28T08:38:40.770Z,19.48
2017-03-28T08:39:40.710Z,19.38
2017-03-28T08:40:40.646Z,19.38
2017-03-28T08:41:40.283Z,19.68
2017-03-28T08:42:40.523Z,19.58
2017-03-28T08:43:40.460Z,19.68
2017-03-28T08:44:40.396Z,19.77
2017-03-28T08:45:40.336Z,19.96
2017-03-28T08:46:40.270Z,19.58
2017-03-28T08:47:39.970Z,19.77
2017-03-28T08:48:40.151Z,19.77
2017-03-28T08:49:40.082Z,19.58
2017-03-28T08:50:40.029Z,19.68
2017-03-28T08:51:39.958Z,19.68
2017-03-28T08:52:39.897Z,19.77
2017-03-28T08:53:39.838Z,19.68
2017-03-28T08:54:39.772Z,19.77
2017-03-28T08:55:39.705Z,19.77
2017-03-28T08:56:39.645Z,19.77
2017-03-28T08:57:39.581Z,19.68
2017-03-28T08:58:39.522Z,19.68
2017-03-28T08:59:39.454Z,19.68
2017-03-28T09:00:39.489Z,19.58
2017-03-28T09:01:39.330Z,19.68
2017-03-28T09:02:39.273Z,19.68
2017-03-28T09:03:39.207Z,19.68
2017-03-28T09:04:39.141Z,19.58
2017-03-28T09:05:39.076Z,19.77
2017-03-28T09:06:39.015Z,19.77
2017-03-28T09:07:38.953Z,19.68
2017-03-28T09:08:38.887Z,19.87
2017-03-28T09:09:38.830Z,19.76
2017-03-28T09:10:38.767Z,19.96
2017-03-28T09:11:38.700Z,20.06
2017-03-28T09:12:38.635Z,19.96
2017-03-28T09:13:38.577Z,20.16
2017-03-28T09:14:38.515Z,20.16
2017-03-28T09:15:38.456Z,20.15
2017-03-28T09:16:38.393Z,20.35
2017-03-28T09:17:38.369Z,20.25
2017-03-28T09:18:38.258Z,20.35
2017-03-28T09:19:38.199Z,19.95
2017-03-28T09:20:38.136Z,20.45
2017-03-28T09:21:38.072Z,20.25
2017-03-28T09:22:38.009Z,20.16
2017-03-28T09:23:37.949Z,20.35
2017-03-28T09:24:37.912Z,20.45
2017-03-28T09:25:37.822Z,20.64
2017-03-28T09:26:37.755Z,20.74
2017-03-28T09:27:37.697Z,20.34
2017-03-28T09:28:37.633Z,20.35
2017-03-28T09:29:37.575Z,20.74
2017-03-28T09:30:37.507Z,20.74
2017-03-28T09:31:37.443Z,20.74
2017-03-28T09:32:37.392Z,20.54
2017-03-28T09:33:37.326Z,20.54
2017-03-28T09:34:37.261Z,20.54
2017-03-28T09:35:37.192Z,20.74
2017-03-28T09:36:37.479Z,20.54
2017-03-28T09:37:37.068Z,20.54
2017-03-28T09:38:37.006Z,20.54
2017-03-28T09:39:36.939Z,20.64
2017-03-28T09:40:36.883Z,20.74
2017-03-28T09:41:36.513Z,20.64
2017-03-28T09:42:36.751Z,20.54
2017-03-28T09:43:36.688Z,20.74
2017-03-28T09:44:36.333Z,21.03
2017-03-28T09:45:36.565Z,20.93
2017-03-28T09:46:36.501Z,20.64
2017-03-28T09:47:36.441Z,20.93
2017-03-28T09:48:36.379Z,20.93
2017-03-28T09:49:36.314Z,20.93
2017-03-28T09:50:36.250Z,20.83
2017-03-28T09:51:35.884Z,20.93
2017-03-28T09:52:35.827Z,20.74
2017-03-28T09:53:36.065Z,20.54
2017-03-28T09:54:36.005Z,20.64
2017-03-28T09:55:35.939Z,20.54
2017-03-28T09:56:35.873Z,20.35
2017-03-28T09:57:35.811Z,20.54
2017-03-28T09:58:35.750Z,20.35
2017-03-28T09:59:35.688Z,20.45
2017-03-28T10:00:35.621Z,20.25
2017-03-28T10:01:35.562Z,20.35
2017-03-28T10:02:35.497Z,20.64
2017-03-28T10:03:35.438Z,20.25
2017-03-28T10:04:35.376Z,20.25
2017-03-28T10:05:35.308Z,20.25
2017-03-28T10:06:35.244Z,20.06
2017-03-28T10:07:35.200Z,20.25
2017-03-28T10:08:35.120Z,20.25
2017-03-28T10:09:35.059Z,20.35
2017-03-28T10:10:34.716Z,20.06
2017-03-28T10:11:34.933Z,20.25
2017-03-28T10:12:34.867Z,20.16
2017-03-28T10:13:34.827Z,20.06
2017-03-28T10:14:34.446Z,19.96
2017-03-28T10:15:34.678Z,20.06
2017-03-28T10:16:34.620Z,19.87
2017-03-28T10:17:34.566Z,20.16
2017-03-28T10:18:34.495Z,20.16
2017-03-28T10:19:34.429Z,20.06
2017-03-28T10:20:34.366Z,19.96
2017-03-28T10:21:34.306Z,19.68
2017-03-28T10:22:34.242Z,19.77
2017-03-28T10:23:34.179Z,19.77
2017-03-28T10:24:34.118Z,19.58
2017-03-28T10:25:34.056Z,19.48
2017-03-28T10:26:33.991Z,19.58
2017-03-28T10:27:33.928Z,19.68
2017-03-28T10:28:33.864Z,19.59
2017-03-28T10:29:33.806Z,19.58
2017-03-28T10:30:33.740Z,19.58
2017-03-28T10:31:33.683Z,19.77
2017-03-28T10:32:33.616Z,19.87
2017-03-28T10:33:33.552Z,19.58
2017-03-28T10:34:33.489Z,19.48
2017-03-28T10:35:33.427Z,19.48
2017-03-28T10:36:33.364Z,19.48
2017-03-28T10:37:33.301Z,19.38
2017-03-28T10:38:33.239Z,19.38
2017-03-28T10:39:47.772Z,19.68
2017-03-28T10:40:33.117Z,19.38
2017-03-28T10:41:33.053Z,19.48
2017-03-28T10:42:32.688Z,19.48
2017-03-28T10:43:32.927Z,19.38
2017-03-28T10:44:33.064Z,19.38
2017-03-28T10:45:33.261Z,19.4
2017-03-28T10:46:32.739Z,19.38
2017-03-28T10:47:32.677Z,19.29
2017-03-28T10:48:32.314Z,19.38
2017-03-28T10:49:32.804Z,19.38
2017-03-28T10:50:32.491Z,19.38
2017-03-28T10:51:32.428Z,19.2
2017-03-28T10:52:32.364Z,19.29
2017-03-28T10:53:32.305Z,19.38
2017-03-28T10:54:32.238Z,19.29
2017-03-28T10:55:32.278Z,19.38
2017-03-28T10:56:32.129Z,19.38
2017-03-28T10:57:32.050Z,19.38
2017-03-28T10:58:31.990Z,19.38
2017-03-28T10:59:31.936Z,19.38
2017-03-28T11:00:31.862Z,19.29
2017-03-28T11:01:31.803Z,19.38
2017-03-28T11:02:31.738Z,19.38
2017-03-28T11:03:31.675Z,19.29
2017-03-28T11:04:31.629Z,19.38
2017-03-28T11:05:31.554Z,19.29
2017-03-28T11:06:31.487Z,19.4
2017-03-28T11:07:31.427Z,19.38
2017-03-28T11:08:31.366Z,19.1
2017-03-28T11:09:31.301Z,19.48
2017-03-28T11:10:31.239Z,19.1
2017-03-28T11:11:31.179Z,19.2
2017-03-28T11:12:31.121Z,19.1
2017-03-28T11:13:31.057Z,19.2
2017-03-28T11:14:30.991Z,18.9
2017-03-28T11:15:30.929Z,19.01
2017-03-28T11:16:30.870Z,19.2
2017-03-28T11:17:30.801Z,19.1
2017-03-28T11:18:30.739Z,19.2
2017-03-28T11:19:30.680Z,19.2
2017-03-28T11:20:30.614Z,19.01
2017-03-28T11:21:30.550Z,18.91
2017-03-28T11:22:30.233Z,18.8
2017-03-28T11:23:30.426Z,18.9
2017-03-28T11:24:30.389Z,18.91
2017-03-28T11:25:30.005Z,18.91
2017-03-28T11:26:30.239Z,19.3
2017-03-28T11:27:30.190Z,19.01
2017-03-28T11:28:30.126Z,19.01
2017-03-28T11:29:29.758Z,19.01
2017-03-28T11:30:29.988Z,19.2
2017-03-28T11:31:29.925Z,19.1
2017-03-28T11:32:29.559Z,19.1
2017-03-28T11:33:29.806Z,18.82
2017-03-28T11:34:29.741Z,18.82
2017-03-28T11:35:29.375Z,18.62
2017-03-28T11:36:29.615Z,18.24
2017-03-28T11:37:29.550Z,18.43
2017-03-28T11:38:29.488Z,18.04
2017-03-28T11:39:29.428Z,18.14
2017-03-28T11:40:29.366Z,17.76
2017-03-28T11:41:29.303Z,17.18
2017-03-28T11:42:29.240Z,17.27
2017-03-28T11:43:29.179Z,17.08
2017-03-28T11:44:29.116Z,17.37
2017-03-28T11:45:29.065Z,17.18
2017-03-28T11:46:28.990Z,17.08
2017-03-28T11:47:28.927Z,17.08
2017-03-28T11:48:28.869Z,16.89
2017-03-28T11:49:28.806Z,16.69
2017-03-28T11:50:28.838Z,16.6
2017-03-28T11:51:28.685Z,16.21
2017-03-28T11:52:28.616Z,16.31
2017-03-28T11:53:28.558Z,15.92
2017-03-28T11:54:28.500Z,16.02
2017-03-28T11:55:28.581Z,15.92
2017-03-28T11:56:28.377Z,16.21
2017-03-28T11:57:28.308Z,15.92
2017-03-28T11:58:28.241Z,16.02
2017-03-28T11:59:28.185Z,16.21
2017-03-28T12:00:28.120Z,16.11
2017-03-28T12:01:27.779Z,16.5
2017-03-28T12:02:27.996Z,16.5
2017-03-28T12:03:27.931Z,16.5
2017-03-28T12:04:27.871Z,16.99
2017-03-28T12:05:27.807Z,17.08
2017-03-28T12:06:27.741Z,17.27
2017-03-28T12:07:27.680Z,17.56
2017-03-28T12:08:27.617Z,17.27
2017-03-28T12:09:27.559Z,18.24
2017-03-28T12:10:27.491Z,18.53
2017-03-28T12:11:27.130Z,18.82
2017-03-28T12:12:27.370Z,18.53
2017-03-28T12:13:27.306Z,18.82
2017-03-28T12:14:27.248Z,18.91
2017-03-28T12:15:27.180Z,19.31
2017-03-28T12:16:27.121Z,19.4
2017-03-28T12:17:27.060Z,19.79
2017-03-28T12:18:26.998Z,19.89
2017-03-28T12:19:26.944Z,20.37
2017-03-28T12:20:26.875Z,19.6
2017-03-28T12:21:27.014Z,20.28
2017-03-28T12:22:26.750Z,20.18
2017-03-28T12:23:26.691Z,20.08
2017-03-28T12:24:26.629Z,20.18
2017-03-28T12:25:26.564Z,20.37
2017-03-28T12:26:26.501Z,20.76
2017-03-28T12:27:26.445Z,20.37
2017-03-28T12:28:26.378Z,20.28
2017-03-28T12:29:26.314Z,20.28
2017-03-28T12:30:26.250Z,20.37
2017-03-28T12:31:26.194Z,20.37
2017-03-28T12:32:26.129Z,20.37
2017-03-28T12:33:26.071Z,20.28
2017-03-28T12:34:26.012Z,20.19
2017-03-28T12:35:25.944Z,20.19
2017-03-28T12:36:25.880Z,20.18
2017-03-28T12:37:25.824Z,20.56
2017-03-28T12:38:25.761Z,20.08
2017-03-28T12:39:25.695Z,20.67
2017-03-28T12:40:25.635Z,21.06
2017-03-28T12:41:25.574Z,21.54
2017-03-28T12:42:25.510Z,20.86
2017-03-28T12:43:25.449Z,21.15
2017-03-28T12:44:25.390Z,20.86
2017-03-28T12:45:25.679Z,20.67
2017-03-28T12:46:25.265Z,20.38
2017-03-28T12:47:25.205Z,20.57
2017-03-28T12:48:25.140Z,20.28
2017-03-28T12:49:24.774Z,20.38
2017-03-28T12:50:25.028Z,20.57
2017-03-28T12:51:24.955Z,21.06
2017-03-28T12:52:24.897Z,21.54
2017-03-28T12:53:24.835Z,21.64